Time;durP1;ratioP1;P1;durP2;ratioP2;P2;SDS_P1;SDS_P2;PMS_P1;PMS_P2;Temp;Humidity;BMP_temperature;BMP_pressure;BME280_temperature;BME280_humidity;BME280_pressure;Samples;Min_cycle;Max_cycle;Signal;HPM_P1;HPM_P2
2021/04/11 00:00:12;;;;;;;1.27;0.90;;;12.30;99.90;;;;;;5071843;28;20209;-76
2021/04/11 00:02:39;;;;;;;3.80;3.03;;;12.20;99.90;;;;;;5071809;28;20217;-73
2021/04/11 00:05:07;;;;;;;1.93;0.50;;;12.20;99.90;;;;;;5072368;28;20213;-75
2021/04/11 00:07:34;;;;;;;1.17;0.70;;;12.10;99.90;;;;;;5071632;28;20620;-74
2021/04/11 00:10:01;;;;;;;3.00;0.73;;;12.20;99.90;;;;;;5071781;28;20206;-78
2021/04/11 00:12:27;;;;;;;1.93;0.97;;;12.10;99.90;;;;;;5071172;28;20221;-73
2021/04/11 00:14:53;;;;;;;3.60;1.23;;;12.10;99.90;;;;;;5071291;28;20210;-73
2021/04/11 00:17:20;;;;;;;2.07;0.70;;;12.10;99.90;;;;;;5071831;28;20210;-73
2021/04/11 00:19:46;;;;;;;0.70;0.50;;;12.10;99.90;;;;;;5071151;28;20247;-72
2021/04/11 00:22:13;;;;;;;1.73;0.60;;;12.10;99.90;;;;;;5069566;28;20202;-72
2021/04/11 00:24:40;;;;;;;3.07;1.30;;;12.00;99.90;;;;;;5070413;28;20219;-74
2021/04/11 00:27:07;;;;;;;0.53;0.53;;;12.10;99.90;;;;;;5070993;28;20229;-73
2021/04/11 00:29:34;;;;;;;2.70;0.90;;;12.10;99.90;;;;;;5071775;28;20210;-75
2021/04/11 00:32:00;;;;;;;1.67;0.90;;;12.10;99.90;;;;;;5071221;28;20205;-72
2021/04/11 00:34:27;;;;;;;3.00;1.13;;;12.10;99.90;;;;;;5071514;28;20299;-73
2021/04/11 00:36:53;;;;;;;2.07;0.80;;;12.10;99.90;;;;;;5070537;28;20211;-73
2021/04/11 00:39:19;;;;;;;1.10;1.00;;;12.10;99.90;;;;;;5071007;28;20237;-72
2021/04/11 00:41:54;;;;;;;1.77;0.80;;;12.10;99.90;;;;;;5070370;28;20202;-74
2021/04/11 00:44:21;;;;;;;0.50;0.50;;;12.10;99.90;;;;;;5071216;28;20198;-76
2021/04/11 00:46:51;;;;;;;1.77;0.70;;;12.10;99.90;;;;;;5070116;28;20222;-72
2021/04/11 00:49:22;;;;;;;1.70;0.70;;;12.10;99.90;;;;;;5070246;28;20252;-77
2021/04/11 00:51:49;;;;;;;1.47;1.27;;;12.10;99.90;;;;;;5069532;28;20210;-75
2021/04/11 00:54:15;;;;;;;3.43;1.00;;;12.10;99.90;;;;;;5069813;28;20618;-74
2021/04/11 00:56:42;;;;;;;2.23;0.80;;;12.10;99.90;;;;;;5069516;28;20696;-75
2021/04/11 00:59:11;;;;;;;0.67;0.63;;;12.10;99.90;;;;;;5069808;28;20237;-74
2021/04/11 01:01:39;;;;;;;3.23;0.60;;;12.20;99.90;;;;;;5070200;28;20216;-75
2021/04/11 01:04:06;;;;;;;2.30;0.87;;;12.10;99.90;;;;;;5070388;28;20554;-73
2021/04/11 01:06:37;;;;;;;1.57;0.90;;;12.10;99.90;;;;;;5070224;28;20318;-75
2021/04/11 01:09:12;;;;;;;1.50;0.70;;;12.10;99.90;;;;;;5070231;28;20553;-74
2021/04/11 01:11:38;;;;;;;0.63;0.63;;;12.10;99.90;;;;;;5069870;28;20267;-72
2021/04/11 01:14:06;;;;;;;0.90;0.70;;;12.10;99.90;;;;;;5068631;28;20203;-73
2021/04/11 01:16:35;;;;;;;1.43;1.00;;;12.10;99.90;;;;;;5070343;28;20247;-74
2021/04/11 01:19:01;;;;;;;1.00;0.60;;;12.10;99.90;;;;;;5069705;28;20299;-77
2021/04/11 01:21:34;;;;;;;1.33;0.70;;;12.00;99.90;;;;;;5069573;28;20202;-73
2021/04/11 01:24:12;;;;;;;1.53;1.20;;;12.00;99.90;;;;;;5069807;28;20252;-73
2021/04/11 01:26:40;;;;;;;2.30;1.00;;;12.00;99.90;;;;;;5069659;28;20201;-73
2021/04/11 01:29:08;;;;;;;0.80;0.80;;;12.00;99.90;;;;;;5069810;28;20210;-73
2021/04/11 01:31:35;;;;;;;2.53;0.97;;;12.10;99.90;;;;;;5069686;28;20243;-73
2021/04/11 01:34:02;;;;;;;1.67;0.90;;;12.00;99.90;;;;;;5069326;28;20743;-74
2021/04/11 01:36:31;;;;;;;1.20;0.87;;;12.00;99.90;;;;;;5067953;28;20213;-74
2021/04/11 01:39:01;;;;;;;1.10;1.00;;;12.00;99.90;;;;;;5069092;28;20287;-73
2021/04/11 01:41:32;;;;;;;2.27;0.80;;;12.10;99.90;;;;;;5069337;28;20214;-75
2021/04/11 01:44:01;;;;;;;4.90;2.70;;;12.10;99.90;;;;;;5069100;28;20214;-75
2021/04/11 01:49:10;;;;;;;1.57;0.97;;;12.10;99.90;;;;;;5108292;27;20564;-76
2021/04/11 01:51:44;;;;;;;1.80;0.77;;;12.00;99.90;;;;;;5108276;28;20208;-72
2021/04/11 01:54:12;;;;;;;1.03;0.70;;;12.00;99.90;;;;;;5108478;28;20197;-73
2021/04/11 01:56:42;;;;;;;2.13;0.93;;;12.00;99.90;;;;;;5107642;28;20622;-73
2021/04/11 01:59:09;;;;;;;2.33;1.07;;;11.90;99.90;;;;;;5108490;28;20212;-73
2021/04/11 02:01:36;;;;;;;3.63;1.10;;;12.00;99.90;;;;;;5108542;28;20211;-70
2021/04/11 02:04:05;;;;;;;2.63;1.10;;;11.90;99.90;;;;;;5107742;28;20216;-73
2021/04/11 02:06:35;;;;;;;4.03;1.83;;;11.90;99.90;;;;;;5108340;28;20205;-74
2021/04/11 02:09:07;;;;;;;1.50;1.17;;;11.90;99.90;;;;;;5107647;28;20765;-77
2021/04/11 02:11:34;;;;;;;1.77;1.40;;;11.90;99.90;;;;;;5108500;28;20290;-73
2021/04/11 02:14:01;;;;;;;1.20;0.77;;;11.90;99.90;;;;;;5107531;28;20231;-73
2021/04/11 02:16:31;;;;;;;3.10;1.40;;;11.90;99.90;;;;;;5108122;28;20209;-73
2021/04/11 02:19:01;;;;;;;2.43;1.47;;;11.90;99.90;;;;;;5107167;28;20623;-73
2021/04/11 02:21:28;;;;;;;3.17;1.47;;;11.90;99.90;;;;;;5107935;28;20201;-76
2021/04/11 02:23:56;;;;;;;1.80;1.63;;;11.90;99.90;;;;;;5107344;28;20584;-73
2021/04/11 02:26:23;;;;;;;2.30;1.10;;;11.90;99.90;;;;;;5108063;28;20201;-74
2021/04/11 02:28:49;;;;;;;1.93;1.00;;;11.90;99.90;;;;;;5107398;28;20297;-78
2021/04/11 02:31:19;;;;;;;2.43;1.10;;;11.90;99.90;;;;;;5107442;28;20212;-79
2021/04/11 02:33:56;;;;;;;1.77;1.10;;;11.90;99.90;;;;;;5107149;28;20201;-77
2021/04/11 02:36:25;;;;;;;2.50;1.03;;;11.80;99.90;;;;;;5107223;28;20231;-79
2021/04/11 02:38:54;;;;;;;1.43;1.07;;;11.90;99.90;;;;;;5107180;28;20208;-74
2021/04/11 02:41:23;;;;;;;1.20;1.00;;;11.90;99.90;;;;;;5107709;28;20209;-77
2021/04/11 02:43:50;;;;;;;3.03;1.47;;;11.90;99.90;;;;;;5079393;28;20208;-75
2021/04/11 02:46:17;;;;;;;1.40;0.90;;;11.90;99.90;;;;;;5107092;28;20205;-77
2021/04/11 02:48:44;;;;;;;2.27;1.20;;;11.90;99.90;;;;;;5106382;28;20731;-75
2021/04/11 02:51:11;;;;;;;2.27;1.07;;;12.00;99.90;;;;;;5107534;28;20245;-75
2021/04/11 02:53:39;;;;;;;1.27;0.90;;;12.00;99.90;;;;;;5107120;28;20212;-75
2021/04/11 02:56:06;;;;;;;0.97;0.53;;;11.90;99.90;;;;;;5107702;28;20560;-77
2021/04/11 02:58:33;;;;;;;1.33;0.80;;;12.00;99.90;;;;;;5104514;28;20210;-76
2021/04/11 03:01:04;;;;;;;1.53;0.97;;;11.90;99.90;;;;;;5093037;28;20565;-74
2021/04/11 03:03:32;;;;;;;1.00;0.70;;;11.90;99.90;;;;;;5093676;28;20211;-75
2021/04/11 03:06:02;;;;;;;2.20;1.00;;;12.00;99.90;;;;;;5092881;28;20213;-76
2021/04/11 03:08:32;;;;;;;1.57;1.00;;;11.90;99.90;;;;;;5093463;28;20229;-74
2021/04/11 03:11:11;;;;;;;0.90;0.90;;;11.90;99.90;;;;;;5092675;28;20684;-73
2021/04/11 03:13:40;;;;;;;3.83;1.23;;;11.90;99.90;;;;;;5090923;28;20216;-75
2021/04/11 03:16:07;;;;;;;3.20;1.03;;;11.90;99.90;;;;;;5067268;28;20682;-76
2021/04/11 03:18:34;;;;;;;1.60;1.50;;;11.90;99.90;;;;;;5091461;28;20232;-75
2021/04/11 03:21:05;;;;;;;1.63;1.27;;;11.90;99.90;;;;;;5089603;28;20646;-77
2021/04/11 03:23:32;;;;;;;3.37;1.13;;;11.90;99.90;;;;;;5091864;28;20201;-73
2021/04/11 03:26:07;;;;;;;1.60;1.10;;;11.80;99.90;;;;;;5088715;28;20209;-74
2021/04/11 03:28:39;;;;;;;2.90;1.50;;;11.80;99.90;;;;;;5091400;28;20228;-73
2021/04/11 03:31:13;;;;;;;1.70;1.27;;;11.70;99.90;;;;;;5090963;28;20229;-74
2021/04/11 03:33:44;;;;;;;4.27;1.00;;;11.80;99.90;;;;;;5092502;28;20204;-74
2021/04/11 03:36:14;;;;;;;1.13;1.00;;;11.70;99.90;;;;;;5092750;28;20205;-75
2021/04/11 03:38:41;;;;;;;0.93;0.77;;;11.80;99.90;;;;;;5092552;28;20210;-74
2021/04/11 03:41:09;;;;;;;1.00;0.93;;;11.80;99.90;;;;;;5092899;28;20209;-75
2021/04/11 03:43:46;;;;;;;2.27;0.90;;;11.80;99.90;;;;;;5092928;28;20205;-74
2021/04/11 03:46:18;;;;;;;1.37;1.10;;;11.70;99.90;;;;;;5092563;28;20201;-74
2021/04/11 03:48:54;;;;;;;1.13;1.00;;;11.80;99.90;;;;;;5091831;28;20248;-76
2021/04/11 03:51:24;;;;;;;3.57;2.40;;;11.70;99.90;;;;;;5092436;28;20208;-75
2021/04/11 03:53:56;;;;;;;1.57;1.03;;;11.70;99.90;;;;;;5091864;28;20676;-75
2021/04/11 03:56:27;;;;;;;2.17;1.20;;;11.70;99.90;;;;;;5092575;28;20205;-75
2021/04/11 03:58:57;;;;;;;2.17;0.87;;;11.70;99.90;;;;;;5091589;28;20209;-74
2021/04/11 04:01:28;;;;;;;3.40;1.20;;;11.70;99.90;;;;;;5092492;28;20209;-74
2021/04/11 04:04:02;;;;;;;1.20;1.10;;;11.70;99.90;;;;;;5091858;28;20197;-76
2021/04/11 04:06:31;;;;;;;2.87;1.33;;;11.70;99.90;;;;;;5092432;28;20213;-75
2021/04/11 04:08:58;;;;;;;1.00;1.00;;;11.70;99.90;;;;;;5091750;28;20233;-83
2021/04/11 04:11:52;;;;;;;1.27;1.17;;;11.70;99.90;;;;;;5091056;28;20210;-73
2021/04/11 04:14:27;;;;;;;1.47;1.30;;;11.70;99.90;;;;;;5091846;28;20201;-76
2021/04/11 04:17:05;;;;;;;1.23;1.13;;;11.70;99.90;;;;;;5091519;28;20680;-74
2021/04/11 04:19:46;;;;;;;1.83;1.33;;;11.70;99.90;;;;;;5092361;28;20205;-78
2021/04/11 04:22:38;;;;;;;2.07;1.10;;;11.70;99.90;;;;;;5091890;28;20572;-75
2021/04/11 04:25:13;;;;;;;1.43;0.90;;;11.60;99.90;;;;;;5092313;28;20262;-73
2021/04/11 04:27:53;;;;;;;1.83;1.43;;;11.60;99.90;;;;;;5090974;28;20734;-73
2021/04/11 04:30:23;;;;;;;1.27;1.17;;;11.60;99.90;;;;;;5084352;28;20248;-75
2021/04/11 04:33:15;;;;;;;1.00;0.90;;;11.60;99.90;;;;;;5085404;28;20213;-75
2021/04/11 04:35:47;;;;;;;2.00;0.90;;;11.60;99.90;;;;;;5091427;28;20205;-73
2021/04/11 04:38:21;;;;;;;1.83;1.70;;;11.60;99.90;;;;;;5091445;28;20209;-74
2021/04/11 04:41:01;;;;;;;1.57;1.37;;;11.60;99.90;;;;;;5091232;28;20205;-75
2021/04/11 04:43:36;;;;;;;1.50;1.40;;;11.60;99.90;;;;;;5091288;28;20212;-78
2021/04/11 04:46:11;;;;;;;2.53;1.00;;;11.60;99.90;;;;;;5091598;28;20204;-75
2021/04/11 04:48:43;;;;;;;3.97;1.60;;;11.60;99.90;;;;;;5086865;28;20236;-77
2021/04/11 04:51:16;;;;;;;1.27;0.83;;;11.60;99.90;;;;;;5074512;28;20211;-77
2021/04/11 04:53:46;;;;;;;1.47;1.17;;;11.60;99.90;;;;;;5088472;28;20284;-73
2021/04/11 04:56:17;;;;;;;1.27;0.97;;;11.60;99.90;;;;;;5086150;28;20209;-74
2021/04/11 04:58:47;;;;;;;2.10;1.40;;;11.50;99.90;;;;;;5090416;28;20206;-76
2021/04/11 05:01:18;;;;;;;3.13;1.07;;;11.50;99.90;;;;;;5091066;28;20592;-76
2021/04/11 05:03:47;;;;;;;1.50;1.20;;;11.50;99.90;;;;;;5090752;28;20201;-75
2021/04/11 05:06:17;;;;;;;1.50;1.20;;;11.50;99.90;;;;;;5091065;28;20202;-72
2021/04/11 05:08:50;;;;;;;2.30;1.03;;;11.50;99.90;;;;;;5087480;28;20692;-74
2021/04/11 05:11:23;;;;;;;1.40;1.27;;;11.50;99.90;;;;;;5091054;28;20254;-73
2021/04/11 05:13:53;;;;;;;2.50;0.93;;;11.40;99.90;;;;;;5090320;28;20201;-72
2021/04/11 05:16:25;;;;;;;0.93;0.70;;;11.40;99.90;;;;;;5079506;28;20232;-75
2021/04/11 05:18:59;;;;;;;0.67;0.63;;;11.50;99.90;;;;;;5090285;28;20202;-74
2021/04/11 05:21:33;;;;;;;2.33;1.63;;;11.40;99.90;;;;;;5090841;28;20592;-73
2021/04/11 05:24:07;;;;;;;1.87;0.87;;;11.40;99.90;;;;;;5090306;28;20213;-76
2021/04/11 05:26:38;;;;;;;1.90;0.90;;;11.50;99.90;;;;;;5091131;28;20201;-73
2021/04/11 05:29:11;;;;;;;2.27;1.07;;;11.50;99.90;;;;;;5090960;28;20592;-73
2021/04/11 05:31:39;;;;;;;1.07;1.00;;;11.50;99.90;;;;;;5090501;28;20198;-75
2021/04/11 05:34:10;;;;;;;3.03;1.23;;;11.50;99.90;;;;;;5091082;28;20218;-74
2021/04/11 05:36:49;;;;;;;1.30;1.10;;;11.40;99.90;;;;;;5090839;28;20210;-73
2021/04/11 05:39:26;;;;;;;2.83;1.20;;;11.40;99.90;;;;;;5090884;28;20217;-75
2021/04/11 05:42:00;;;;;;;1.73;1.63;;;11.40;99.90;;;;;;5089989;28;20574;-73
2021/04/11 05:44:35;;;;;;;2.50;1.77;;;11.40;99.90;;;;;;5079242;28;20201;-75
2021/04/11 05:47:13;;;;;;;3.37;1.53;;;11.50;99.90;;;;;;5074070;28;20276;-75
2021/04/11 05:49:47;;;;;;;1.50;1.40;;;11.60;99.90;;;;;;5060439;28;20339;-72
2021/04/11 05:52:20;;;;;;;2.37;1.60;;;11.60;99.90;;;;;;5059751;28;20214;-73
2021/04/11 05:54:50;;;;;;;2.20;1.30;;;11.70;99.90;;;;;;5062079;28;20340;-74
2021/04/11 05:57:21;;;;;;;1.97;1.50;;;11.80;99.90;;;;;;5072392;28;20194;-74
2021/04/11 05:59:52;;;;;;;2.30;1.47;;;11.90;99.90;;;;;;5072568;28;20202;-77
2021/04/11 06:02:26;;;;;;;1.60;1.10;;;11.90;99.90;;;;;;5074331;28;20205;-77
2021/04/11 06:05:00;;;;;;;1.67;1.33;;;11.80;99.90;;;;;;5071329;28;20759;-75
2021/04/11 06:07:32;;;;;;;1.30;1.20;;;11.90;99.90;;;;;;5073608;28;20221;-73
2021/04/11 06:10:04;;;;;;;3.03;1.57;;;12.00;99.90;;;;;;5071776;28;20210;-75
2021/04/11 06:12:35;;;;;;;2.83;1.87;;;11.90;99.90;;;;;;5075263;28;20697;-73
2021/04/11 06:15:08;;;;;;;1.43;1.33;;;12.10;99.90;;;;;;5069394;28;20217;-77
2021/04/11 06:17:35;;;;;;;1.83;1.70;;;12.10;99.90;;;;;;5072114;28;20210;-72
2021/04/11 06:20:04;;;;;;;2.30;1.77;;;12.10;99.90;;;;;;5062083;28;20207;-74
2021/04/11 06:22:39;;;;;;;1.97;1.77;;;12.10;99.90;;;;;;5069657;28;20571;-74
2021/04/11 06:25:13;;;;;;;2.03;1.73;;;12.00;99.90;;;;;;5088694;28;20209;-74
2021/04/11 06:27:47;;;;;;;2.57;2.00;;;12.00;99.90;;;;;;5084566;28;20229;-74
2021/04/11 06:30:17;;;;;;;2.07;1.53;;;12.00;99.90;;;;;;5084031;28;20197;-74
2021/04/11 06:32:48;;;;;;;4.33;1.80;;;12.10;99.90;;;;;;5083215;28;20201;-74
2021/04/11 06:35:21;;;;;;;2.53;1.53;;;12.20;99.90;;;;;;5092766;28;20243;-75
2021/04/11 06:37:48;;;;;;;1.70;1.60;;;12.20;99.90;;;;;;5093927;28;20625;-74
2021/04/11 06:40:27;;;;;;;2.27;1.80;;;12.10;99.90;;;;;;5093730;28;20228;-75
2021/04/11 06:43:19;;;;;;;2.53;1.50;;;12.30;99.90;;;;;;5093473;28;20209;-75
2021/04/11 06:45:54;;;;;;;2.23;2.03;;;12.50;99.90;;;;;;5093319;28;20213;-76
2021/04/11 06:48:41;;;;;;;1.47;1.30;;;12.40;99.90;;;;;;5093461;28;20237;-78
2021/04/11 06:51:39;;;;;;;2.27;1.90;;;12.40;99.90;;;;;;5093601;28;20669;-73
2021/04/11 06:54:40;;;;;;;2.30;1.80;;;12.40;99.90;;;;;;5013209;28;20208;-75
2021/04/11 06:57:20;;;;;;;3.70;2.30;;;12.30;99.90;;;;;;5068928;28;20194;-72
2021/04/11 07:00:07;;;;;;;2.00;1.90;;;12.30;99.90;;;;;;5082697;28;20216;-71
2021/04/11 07:03:06;;;;;;;3.67;2.20;;;12.30;99.90;;;;;;5062944;28;20201;-73
2021/04/11 07:05:51;;;;;;;2.57;1.83;;;12.40;99.90;;;;;;5083597;28;20208;-72
2021/04/11 07:08:58;;;;;;;2.53;2.33;;;12.50;99.90;;;;;;5073907;28;20557;-72
2021/04/11 07:12:06;;;;;;;1.80;1.70;;;12.50;99.90;;;;;;5019904;28;20216;-74
2021/04/11 07:15:00;;;;;;;1.93;1.70;;;12.60;99.90;;;;;;5025000;28;20266;-75
2021/04/11 07:17:53;;;;;;;1.97;1.70;;;12.60;99.90;;;;;;5073716;28;20220;-76
2021/04/11 07:20:46;;;;;;;3.53;2.47;;;12.70;99.90;;;;;;5056203;28;20206;-77
2021/04/11 07:23:45;;;;;;;4.30;2.27;;;12.80;99.90;;;;;;5062736;28;20199;-78
2021/04/11 07:26:41;;;;;;;1.83;1.73;;;13.10;99.90;;;;;;5090758;28;20209;-78
2021/04/11 07:29:20;;;;;;;2.10;1.90;;;13.20;99.90;;;;;;5086424;28;20238;-77
2021/04/11 07:32:14;;;;;;;2.23;2.03;;;13.00;99.90;;;;;;5086284;28;20206;-76
2021/04/11 07:35:00;;;;;;;4.17;2.43;;;12.80;99.90;;;;;;5086268;28;20288;-81
2021/04/11 07:38:14;;;;;;;2.80;2.10;;;13.00;99.90;;;;;;5068602;28;20213;-82
2021/04/11 07:41:07;;;;;;;2.00;1.80;;;13.10;99.90;;;;;;5032305;28;20208;-79
2021/04/11 07:43:43;;;;;;;5.33;2.10;;;13.20;99.90;;;;;;5058673;28;20205;-77
2021/04/11 07:46:35;;;;;;;2.73;2.33;;;13.20;99.90;;;;;;5084139;28;20223;-80
2021/04/11 07:49:34;;;;;;;2.03;1.93;;;13.00;99.90;;;;;;5062994;28;20717;-76
2021/04/11 07:52:32;;;;;;;2.60;1.73;;;13.00;99.90;;;;;;5064765;28;20224;-76
2021/04/11 07:55:19;;;;;;;2.03;1.80;;;12.90;99.90;;;;;;5071485;28;20213;-77
2021/04/11 07:58:14;;;;;;;1.93;1.73;;;12.90;99.90;;;;;;5076213;28;20202;-77
2021/04/11 08:01:03;;;;;;;2.10;1.97;;;13.00;99.90;;;;;;5079618;28;20202;-80
2021/04/11 08:03:57;;;;;;;2.90;2.70;;;12.90;99.90;;;;;;5074799;28;20228;-76
2021/04/11 08:06:46;;;;;;;3.67;2.67;;;12.90;99.90;;;;;;5052838;28;20207;-81
2021/04/11 08:09:21;;;;;;;2.77;2.10;;;13.00;99.90;;;;;;5070796;28;20238;-75
2021/04/11 08:12:30;;;;;;;2.67;2.17;;;13.10;99.90;;;;;;5074629;28;20197;-78
2021/04/11 08:15:10;;;;;;;3.10;1.87;;;13.10;99.90;;;;;;5070838;28;20262;-76
2021/04/11 08:17:50;;;;;;;2.85;1.98;;;13.10;99.90;;;;;;5078245;28;20205;-78
2021/04/11 08:20:44;;;;;;;2.33;2.13;;;13.10;99.90;;;;;;5090337;28;20208;-75
2021/04/11 08:23:30;;;;;;;3.20;2.70;;;12.90;99.90;;;;;;5069469;28;20210;-76
2021/04/11 08:26:13;;;;;;;2.30;2.10;;;12.80;99.90;;;;;;5089162;28;20221;-75
2021/04/11 08:29:10;;;;;;;3.03;2.77;;;12.80;99.90;;;;;;5090078;28;20703;-74
2021/04/11 08:31:55;;;;;;;4.03;2.25;;;12.80;99.90;;;;;;5091561;28;20201;-78
2021/04/11 08:34:58;;;;;;;2.93;1.73;;;12.80;99.90;;;;;;5091642;28;20253;-76
2021/04/11 08:37:52;;;;;;;4.17;2.20;;;12.80;99.90;;;;;;5091922;28;20237;-78
2021/04/11 08:40:34;;;;;;;2.57;2.33;;;12.90;99.90;;;;;;5091360;28;20209;-77
2021/04/11 08:43:14;;;;;;;2.50;2.17;;;12.90;99.90;;;;;;5091506;28;20233;-76
2021/04/11 08:45:49;;;;;;;3.37;2.90;;;13.00;99.90;;;;;;5066178;28;20228;-76
2021/04/11 08:48:44;;;;;;;3.67;2.40;;;12.90;99.90;;;;;;5091011;28;20233;-75
2021/04/11 08:51:18;;;;;;;2.77;2.00;;;12.90;99.90;;;;;;5074817;28;20227;-76
2021/04/11 08:54:05;;;;;;;2.70;2.50;;;12.90;99.90;;;;;;5090706;28;20197;-75
2021/04/11 08:56:39;;;;;;;2.43;2.20;;;12.90;99.90;;;;;;5091353;28;20197;-75
2021/04/11 08:59:13;;;;;;;2.45;2.25;;;12.80;99.90;;;;;;5091448;28;20210;-74
2021/04/11 09:02:09;;;;;;;2.47;2.28;;;12.80;99.90;;;;;;5090833;28;20227;-75
2021/04/11 09:04:41;;;;;;;3.00;2.70;;;12.80;99.90;;;;;;5069416;28;20213;-74
2021/04/11 09:07:23;;;;;;;4.60;2.38;;;12.80;99.90;;;;;;5091032;28;20669;-78
2021/04/11 09:10:07;;;;;;;2.83;2.63;;;12.70;99.90;;;;;;5090738;28;20216;-74
2021/04/11 09:12:44;;;;;;;13.65;10.80;;;12.70;99.90;;;;;;5076789;28;20213;-75
2021/04/11 09:15:22;;;;;;;22.08;17.27;;;12.70;99.90;;;;;;5090837;28;20687;-75
2021/04/11 09:18:12;;;;;;;19.63;14.00;;;12.70;99.90;;;;;;5090355;28;20582;-74
2021/04/11 09:20:45;;;;;;;4.47;4.07;;;12.60;99.90;;;;;;5090525;28;20586;-74
2021/04/11 09:23:28;;;;;;;4.40;3.63;;;12.60;99.90;;;;;;5091087;28;20575;-75
2021/04/11 09:26:05;;;;;;;3.05;2.70;;;12.60;99.90;;;;;;5090098;28;20201;-76
2021/04/11 09:28:44;;;;;;;6.50;3.53;;;12.70;99.90;;;;;;5091207;28;20259;-76
2021/04/11 09:31:31;;;;;;;6.63;3.13;;;12.60;99.90;;;;;;5090655;28;20209;-77
2021/04/11 09:34:27;;;;;;;4.50;3.87;;;12.50;99.90;;;;;;5090742;28;20206;-80
2021/04/11 09:37:06;;;;;;;5.73;4.27;;;12.50;99.90;;;;;;5090838;28;20206;-79
2021/04/11 09:40:00;;;;;;;5.70;5.17;;;12.50;99.90;;;;;;5091152;28;20213;-81
2021/04/11 09:42:55;;;;;;;7.47;5.30;;;12.50;99.90;;;;;;5091110;28;20209;-76
2021/04/11 09:45:39;;;;;;;5.90;4.93;;;12.30;99.90;;;;;;5089849;28;20210;-81
2021/04/11 09:48:31;;;;;;;4.93;4.27;;;12.20;99.90;;;;;;5090553;28;20229;-82
2021/04/11 09:51:17;;;;;;;2.00;1.80;;;11.90;99.90;;;;;;5090136;28;20202;-82
2021/04/11 09:54:16;;;;;;;2.90;2.70;;;11.50;99.90;;;;;;5089948;28;20628;-76
2021/04/11 09:56:55;;;;;;;3.10;2.80;;;11.30;99.90;;;;;;5090249;28;20216;-75
2021/04/11 09:59:55;;;;;;;11.33;7.17;;;11.30;99.90;;;;;;5090711;28;20212;-77
2021/04/11 10:02:33;;;;;;;5.00;3.47;;;11.20;99.90;;;;;;5072461;28;20209;-77
2021/04/11 10:05:12;;;;;;;9.43;4.17;;;11.20;99.90;;;;;;5075167;28;20216;-75
2021/04/11 10:08:02;;;;;;;5.17;2.67;;;11.20;99.90;;;;;;5086557;28;20674;-75
2021/04/11 10:10:49;;;;;;;3.13;1.83;;;11.10;99.90;;;;;;5074771;28;20267;-74
2021/04/11 10:13:33;;;;;;;2.73;2.10;;;11.10;99.90;;;;;;5094089;28;20349;-76
2021/04/11 10:16:19;;;;;;;2.67;2.10;;;11.20;99.90;;;;;;5075772;28;20213;-77
2021/04/11 10:19:16;;;;;;;4.43;2.70;;;11.30;99.90;;;;;;5072091;28;20648;-80
2021/04/11 10:21:53;;;;;;;3.03;2.40;;;11.40;99.90;;;;;;5064816;28;20198;-79
2021/04/11 10:24:30;;;;;;;3.97;3.10;;;11.50;99.90;;;;;;5087634;28;20204;-79
2021/04/11 10:27:03;;;;;;;6.27;4.10;;;11.50;99.90;;;;;;5068687;28;20639;-76
2021/04/11 10:29:33;;;;;;;4.37;3.10;;;11.60;99.90;;;;;;5087492;28;20225;-77
2021/04/11 10:32:11;;;;;;;4.80;2.50;;;11.60;99.90;;;;;;5083749;28;20421;-78
2021/04/11 10:34:43;;;;;;;4.33;3.93;;;11.80;99.90;;;;;;5069732;28;20201;-78
2021/04/11 10:37:20;;;;;;;6.50;4.37;;;12.00;99.90;;;;;;5082339;28;20210;-80
2021/04/11 10:39:57;;;;;;;2.33;2.13;;;12.10;99.90;;;;;;5073309;28;20669;-79
2021/04/11 10:42:41;;;;;;;5.30;3.30;;;12.30;99.90;;;;;;5082882;28;20694;-78
2021/04/11 10:45:23;;;;;;;6.07;3.70;;;12.30;99.90;;;;;;5076303;28;20201;-78
2021/04/11 10:48:31;;;;;;;3.13;2.83;;;12.30;99.90;;;;;;5089013;28;20213;-79
2021/04/11 10:51:15;;;;;;;4.17;3.20;;;12.30;99.90;;;;;;5053931;28;20220;-80
2021/04/11 10:53:56;;;;;;;4.57;2.30;;;12.30;99.90;;;;;;5087957;28;20197;-78
2021/04/11 10:56:41;;;;;;;6.80;5.00;;;12.50;99.90;;;;;;5090083;28;20209;-77
2021/04/11 10:59:40;;;;;;;3.17;2.87;;;12.40;99.90;;;;;;5068354;28;20212;-78
2021/04/11 11:02:39;;;;;;;5.60;4.63;;;12.50;99.90;;;;;;5087371;28;20289;-80
2021/04/11 11:05:49;;;;;;;6.70;6.10;;;12.60;99.90;;;;;;5070637;28;20214;-80
2021/04/11 11:08:40;;;;;;;5.53;4.10;;;12.60;99.90;;;;;;5002509;28;20234;-78
2021/04/11 11:11:39;;;;;;;3.78;3.20;;;12.60;99.90;;;;;;5059101;28;20206;-76
2021/04/11 11:14:19;;;;;;;3.17;2.43;;;12.40;99.90;;;;;;5075928;28;20213;-78
2021/04/11 11:17:08;;;;;;;3.07;2.77;;;12.40;99.90;;;;;;5075514;28;20198;-78
2021/04/11 11:20:02;;;;;;;2.87;2.67;;;12.40;99.90;;;;;;5071729;28;20194;-80
2021/04/11 11:22:56;;;;;;;2.85;2.50;;;12.40;99.90;;;;;;5045660;28;20630;-79
2021/04/11 11:25:38;;;;;;;3.58;2.17;;;12.40;99.90;;;;;;5075251;28;20727;-79
2021/04/11 11:28:36;;;;;;;5.30;2.70;;;12.50;99.90;;;;;;5071912;28;20218;-78
2021/04/11 11:31:24;;;;;;;2.50;2.15;;;12.50;99.90;;;;;;5084937;28;20669;-76
2021/04/11 11:34:05;;;;;;;4.15;2.30;;;12.70;99.90;;;;;;5084215;28;20248;-78
2021/04/11 11:36:40;;;;;;;3.23;2.60;;;12.70;99.90;;;;;;5085193;28;20218;-76
2021/04/11 11:39:20;;;;;;;3.73;2.53;;;12.70;99.90;;;;;;5093064;28;20263;-78
2021/04/11 11:41:54;;;;;;;4.87;3.77;;;12.70;99.90;;;;;;5066836;28;20201;-77
2021/04/11 11:44:25;;;;;;;3.40;3.00;;;12.80;99.90;;;;;;5074003;28;20224;-77
2021/04/11 11:47:01;;;;;;;2.43;2.00;;;13.00;99.90;;;;;;5074331;28;20209;-76
2021/04/11 11:49:37;;;;;;;2.67;2.37;;;12.80;99.90;;;;;;5076101;28;20233;-74
2021/04/11 11:52:08;;;;;;;2.50;2.30;;;13.00;99.90;;;;;;5082318;28;20206;-75
2021/04/11 11:54:39;;;;;;;2.63;2.30;;;13.20;99.90;;;;;;5068122;28;20208;-73
2021/04/11 11:57:16;;;;;;;2.60;2.38;;;13.20;99.90;;;;;;5061002;28;20214;-72
2021/04/11 11:59:48;;;;;;;4.13;2.70;;;13.10;99.90;;;;;;5070622;28;20267;-73
2021/04/11 12:02:26;;;;;;;9.48;5.63;;;13.10;99.90;;;;;;5074752;28;20202;-74
2021/04/11 12:05:06;;;;;;;3.35;2.45;;;13.10;99.90;;;;;;5077222;28;20197;-77
2021/04/11 12:07:38;;;;;;;8.57;5.90;;;13.00;99.90;;;;;;5082071;28;20198;-75
2021/04/11 12:10:23;;;;;;;6.00;4.05;;;12.40;99.90;;;;;;5078480;28;20751;-79
2021/04/11 12:13:03;;;;;;;6.60;4.40;;;11.90;99.90;;;;;;5070229;28;20203;-80
2021/04/11 12:15:34;;;;;;;4.67;3.37;;;11.50;99.90;;;;;;5075310;28;20206;-76
2021/04/11 12:18:07;;;;;;;3.07;2.27;;;11.40;99.90;;;;;;5084979;28;20300;-78
2021/04/11 12:20:42;;;;;;;7.47;3.73;;;11.40;99.90;;;;;;5078744;28;20206;-81
2021/04/11 12:23:19;;;;;;;3.43;1.83;;;11.40;99.90;;;;;;5071729;28;20205;-78
2021/04/11 12:25:46;;;;;;;3.13;1.80;;;11.40;99.90;;;;;;5066467;28;20206;-80
2021/04/11 12:28:23;;;;;;;5.17;1.93;;;11.40;99.90;;;;;;5089308;28;20701;-77
2021/04/11 12:30:50;;;;;;;2.43;1.77;;;11.40;99.90;;;;;;5088784;28;20697;-79
2021/04/11 12:33:25;;;;;;;6.60;2.87;;;11.50;99.90;;;;;;5083686;28;20704;-79
2021/04/11 12:36:02;;;;;;;3.43;2.23;;;11.60;99.90;;;;;;5072022;28;20193;-79
2021/04/11 12:38:39;;;;;;;2.93;2.07;;;11.70;99.90;;;;;;5090215;28;20269;-77
2021/04/11 12:41:13;;;;;;;4.30;2.77;;;11.90;99.90;;;;;;5091619;28;20677;-77
2021/04/11 12:43:49;;;;;;;7.63;3.80;;;11.90;99.90;;;;;;5078696;28;20197;-80
2021/04/11 12:46:33;;;;;;;4.57;2.27;;;12.10;99.90;;;;;;5070641;28;20202;-75
2021/04/11 12:49:06;;;;;;;7.77;4.07;;;12.30;99.90;;;;;;5069919;28;20241;-78
2021/04/11 12:51:38;;;;;;;2.00;1.83;;;12.40;99.90;;;;;;5070827;28;20611;-79
2021/04/11 12:54:12;;;;;;;5.83;3.43;;;12.30;99.90;;;;;;5073553;28;20220;-77
2021/04/11 12:56:43;;;;;;;6.83;3.00;;;12.30;99.90;;;;;;5075071;28;20214;-76
2021/04/11 12:59:19;;;;;;;2.70;2.00;;;12.30;99.90;;;;;;5074059;28;20237;-80
2021/04/11 13:01:48;;;;;;;6.13;2.70;;;12.20;99.90;;;;;;5075110;28;20611;-76
2021/04/11 13:04:22;;;;;;;6.67;3.33;;;12.40;99.90;;;;;;5078903;28;20202;-78
2021/04/11 13:06:54;;;;;;;3.50;2.50;;;12.40;99.90;;;;;;5073625;28;20198;-87
2021/04/11 13:09:53;;;;;;;4.13;2.63;;;12.50;99.90;;;;;;5071974;28;20229;-80
2021/04/11 13:12:27;;;;;;;7.67;4.77;;;12.50;99.90;;;;;;5052466;28;20217;-85
2021/04/11 13:15:03;;;;;;;5.27;3.23;;;12.70;99.90;;;;;;5075135;28;20217;-84
2021/04/11 13:17:37;;;;;;;5.53;3.43;;;12.50;99.90;;;;;;5078627;28;20224;-73
2021/04/11 13:20:12;;;;;;;8.07;3.60;;;12.50;99.90;;;;;;5072724;28;20206;-74
2021/04/11 13:22:50;;;;;;;5.17;3.07;;;12.50;99.90;;;;;;5070474;28;20206;-78
2021/04/11 13:25:28;;;;;;;9.37;4.37;;;12.50;99.90;;;;;;5074191;28;20209;-79
2021/04/11 13:28:03;;;;;;;8.60;5.57;;;12.50;99.90;;;;;;5068163;28;20735;-81
2021/04/11 13:30:35;;;;;;;3.10;2.80;;;12.50;99.90;;;;;;5072266;28;20556;-77
2021/04/11 13:33:10;;;;;;;2.43;2.00;;;12.60;99.90;;;;;;5070672;28;20211;-78
2021/04/11 13:35:40;;;;;;;2.60;2.27;;;12.60;99.90;;;;;;5089643;28;20204;-77
2021/04/11 13:38:14;;;;;;;1.27;1.17;;;12.40;99.90;;;;;;5080685;28;20206;-79